Time;durP1;ratioP1;P1;durP2;ratioP2;P2;SDS_P1;SDS_P2;PMS_P1;PMS_P2;Temp;Humidity;BMP_temperature;BMP_pressure;BME280_temperature;BME280_humidity;BME280_pressure;Samples;Min_cycle;Max_cycle;Signal;HPM_P1;HPM_P2
2023/07/30 00:00:28;;;;;;;10.65;5.53;;;;;;;20.26;100.00;99890.81;1482568;88;21477;-79
2023/07/30 00:02:55;;;;;;;9.83;5.35;;;;;;;20.21;100.00;99878.56;1474453;88;21455;-79
2023/07/30 00:05:21;;;;;;;7.25;4.80;;;;;;;20.21;100.00;99881.78;1481591;88;22446;-79
2023/07/30 00:07:48;;;;;;;5.80;5.00;;;;;;;20.15;100.00;99866.03;1475244;88;21645;-79
2023/07/30 00:10:14;;;;;;;7.00;4.83;;;;;;;20.14;100.00;99843.41;1479421;88;21434;-79
2023/07/30 00:12:41;;;;;;;11.53;5.03;;;;;;;20.14;100.00;99837.53;1483413;88;21440;-79
2023/07/30 00:15:08;;;;;;;9.90;4.80;;;;;;;20.12;100.00;99839.62;1483208;88;21588;-80
2023/07/30 00:17:34;;;;;;;6.75;5.35;;;;;;;20.12;100.00;99851.70;1475607;88;21433;-79
2023/07/30 00:20:00;;;;;;;8.03;5.03;;;;;;;20.06;100.00;99856.63;1475545;88;22322;-80
2023/07/30 00:22:26;;;;;;;8.13;4.92;;;;;;;19.96;100.00;99868.40;1476614;88;21426;-80
2023/07/30 00:24:52;;;;;;;9.10;6.10;;;;;;;19.88;100.00;99869.53;1477340;88;21411;-80
2023/07/30 00:27:19;;;;;;;8.83;5.17;;;;;;;19.80;100.00;99883.23;1474978;88;22239;-80
2023/07/30 00:29:45;;;;;;;7.17;5.35;;;;;;;19.72;100.00;99885.67;1488014;88;21463;-80
2023/07/30 00:32:11;;;;;;;9.70;5.10;;;;;;;19.72;100.00;99882.99;1475105;88;21463;-80
2023/07/30 00:34:37;;;;;;;5.60;5.10;;;;;;;19.73;100.00;99869.86;1475741;88;22390;-80
2023/07/30 00:37:04;;;;;;;6.90;4.40;;;;;;;19.77;100.00;99860.33;1470863;88;21484;-80
2023/07/30 00:39:30;;;;;;;10.43;4.42;;;;;;;19.79;100.00;99850.20;1487140;88;22432;-80
2023/07/30 00:41:56;;;;;;;9.35;4.25;;;;;;;19.79;100.00;99858.26;1484065;88;22356;-80
2023/07/30 00:44:23;;;;;;;30.00;6.12;;;;;;;19.73;100.00;99854.27;1475600;88;21441;-80
2023/07/30 00:46:49;;;;;;;6.22;4.78;;;;;;;19.66;100.00;99854.34;1483653;88;21434;-80
2023/07/30 00:49:16;;;;;;;11.53;5.75;;;;;;;19.63;100.00;99862.00;1472975;88;21478;-80
2023/07/30 00:51:43;;;;;;;12.07;5.47;;;;;;;19.57;100.00;99852.96;1479690;88;21628;-79
2023/07/30 00:54:11;;;;;;;8.35;6.42;;;;;;;19.53;100.00;99852.56;1466918;88;21537;-79
2023/07/30 00:56:37;;;;;;;15.50;5.35;;;;;;;19.52;100.00;99854.13;1476627;88;21653;-80
2023/07/30 00:59:04;;;;;;;8.13;5.35;;;;;;;19.51;100.00;99849.30;1489222;88;22053;-79
2023/07/30 01:01:34;;;;;;;8.93;4.60;;;;;;;19.53;100.00;99850.40;1479915;88;21515;-79
2023/07/30 01:04:00;;;;;;;8.90;5.70;;;;;;;19.53;100.00;99854.42;1477489;88;21529;-79
2023/07/30 01:06:26;;;;;;;7.30;5.45;;;;;;;19.51;100.00;99847.95;1460367;88;21573;-80
2023/07/30 01:08:53;;;;;;;7.28;5.62;;;;;;;19.54;100.00;99848.03;1477255;88;21463;-80
2023/07/30 01:11:20;;;;;;;7.28;5.22;;;;;;;19.53;100.00;99839.66;1476527;88;21448;-80
2023/07/30 01:13:47;;;;;;;6.53;4.75;;;;;;;19.51;100.00;99834.53;1483864;88;22458;-79
2023/07/30 01:16:13;;;;;;;6.28;5.08;;;;;;;19.51;100.00;99839.08;1481022;88;21522;-79
2023/07/30 01:18:39;;;;;;;10.32;5.75;;;;;;;19.51;100.00;99841.24;1468983;88;21669;-79
2023/07/30 01:21:06;;;;;;;5.87;5.22;;;;;;;19.52;100.00;99842.88;1476682;88;21701;-79
2023/07/30 01:23:32;;;;;;;12.23;4.78;;;;;;;19.53;100.00;99836.45;1483052;88;21499;-79
2023/07/30 01:26:06;;;;;;;11.38;5.12;;;;;;;19.54;100.00;99831.94;1479791;88;21426;-79
2023/07/30 01:28:38;;;;;;;5.40;4.87;;;;;;;19.54;100.00;99831.94;1473782;88;21456;-79
2023/07/30 01:31:06;;;;;;;9.65;4.92;;;;;;;19.53;100.00;99827.59;1473373;88;21470;-79
2023/07/30 01:33:33;;;;;;;7.53;5.50;;;;;;;19.53;100.00;99824.91;1459147;88;21403;-79
2023/07/30 01:36:00;;;;;;;7.95;6.08;;;;;;;19.54;100.00;99826.56;1482241;88;21530;-79
2023/07/30 01:38:26;;;;;;;10.10;6.28;;;;;;;19.56;100.00;99833.85;1469715;88;21434;-80
2023/07/30 01:40:53;;;;;;;10.23;5.97;;;;;;;19.56;100.00;99830.67;1465168;88;21455;-79
2023/07/30 01:43:19;;;;;;;8.65;5.10;;;;;;;19.58;100.00;99831.25;1477225;88;21514;-80
2023/07/30 01:45:45;;;;;;;12.13;5.37;;;;;;;19.59;100.00;99836.09;1485406;88;21457;-80
2023/07/30 01:48:11;;;;;;;11.50;5.25;;;;;;;19.55;100.00;99826.33;1471962;88;21654;-79
2023/07/30 01:50:38;;;;;;;8.95;5.30;;;;;;;19.55;100.00;99826.33;1475936;88;22432;-79
2023/07/30 01:53:04;;;;;;;8.78;6.53;;;;;;;19.61;100.00;99836.17;1479959;88;21556;-79
2023/07/30 01:55:30;;;;;;;7.17;5.58;;;;;;;19.61;100.00;99828.13;1477596;88;21433;-79
2023/07/30 01:57:56;;;;;;;8.00;5.40;;;;;;;19.62;100.00;99830.28;1467630;88;23022;-80
2023/07/30 02:00:22;;;;;;;8.63;5.90;;;;;;;19.62;100.00;99836.99;1472138;88;21507;-80
2023/07/30 02:02:48;;;;;;;9.75;5.70;;;;;;;19.63;100.00;99829.78;1482331;88;21433;-80
2023/07/30 02:05:15;;;;;;;7.55;5.40;;;;;;;19.60;100.00;99829.18;1464699;88;21622;-80
2023/07/30 02:07:41;;;;;;;7.15;4.95;;;;;;;19.59;100.00;99824.02;1464947;89;21440;-81
2023/07/30 02:10:08;;;;;;;7.25;5.50;;;;;;;19.56;100.00;99827.14;1454923;89;21585;-80
2023/07/30 02:12:34;;;;;;;8.83;5.33;;;;;;;19.47;100.00;99831.16;1456801;89;21463;-80
2023/07/30 02:15:00;;;;;;;7.60;6.53;;;;;;;19.35;100.00;99825.16;1465387;89;22731;-79
2023/07/30 02:17:26;;;;;;;7.85;5.70;;;;;;;19.28;100.00;99824.41;1461092;89;22438;-80
2023/07/30 02:19:52;;;;;;;9.80;5.77;;;;;;;19.25;100.00;99818.64;1457366;89;21618;-80
2023/07/30 02:22:18;;;;;;;10.68;6.20;;;;;;;19.22;100.00;99818.59;1454672;89;21472;-80
2023/07/30 02:24:44;;;;;;;12.63;5.47;;;;;;;19.20;100.00;99813.95;1457083;89;22869;-79
2023/07/30 02:27:10;;;;;;;8.93;5.78;;;;;;;19.20;100.00;99817.97;1460543;89;21449;-80
2023/07/30 02:29:36;;;;;;;7.50;5.47;;;;;;;19.21;100.00;99810.22;1456121;89;21556;-80
2023/07/30 02:32:03;;;;;;;8.15;5.95;;;;;;;19.21;100.00;99824.16;1445088;89;21500;-79
2023/07/30 02:34:29;;;;;;;8.68;5.95;;;;;;;19.21;100.00;99820.95;1455850;89;21441;-80
2023/07/30 02:36:56;;;;;;;6.80;6.08;;;;;;;19.23;100.00;99826.11;1448674;89;21448;-79
2023/07/30 02:39:22;;;;;;;10.98;5.83;;;;;;;19.22;100.00;99821.27;1460599;88;21397;-78
2023/07/30 02:41:49;;;;;;;7.33;6.03;;;;;;;19.20;100.00;99826.02;1435220;89;21634;-80
2023/07/30 02:44:15;;;;;;;7.00;5.72;;;;;;;19.14;100.00;99829.05;1456475;89;21679;-80
2023/07/30 02:46:41;;;;;;;8.40;6.10;;;;;;;19.09;100.00;99824.05;1452911;89;21523;-81
2023/07/30 02:49:08;;;;;;;8.65;6.30;;;;;;;19.08;100.00;99827.25;1458021;89;21441;-80
2023/07/30 02:51:34;;;;;;;10.25;6.40;;;;;;;19.10;100.00;99829.70;1466487;89;21567;-81
2023/07/30 02:54:06;;;;;;;7.70;6.05;;;;;;;19.10;100.00;99828.36;1452555;88;22379;-80
2023/07/30 02:56:33;;;;;;;9.05;5.87;;;;;;;19.10;100.00;99828.36;1452970;89;21962;-80
2023/07/30 02:58:59;;;;;;;11.00;6.00;;;;;;;19.12;100.00;99826.29;1456290;89;21641;-80
2023/07/30 03:01:26;;;;;;;7.08;6.15;;;;;;;19.14;100.00;99833.08;1449313;89;22359;-79
2023/07/30 03:03:52;;;;;;;11.28;6.85;;;;;;;19.14;100.00;99825.56;1457251;88;21530;-80
2023/07/30 03:06:18;;;;;;;11.45;7.25;;;;;;;19.14;100.00;99818.85;1472527;88;21750;-80
2023/07/30 03:08:45;;;;;;;9.65;6.30;;;;;;;19.10;100.00;99827.02;1480494;88;21478;-78
2023/07/30 03:11:13;;;;;;;10.58;7.65;;;;;;;19.08;100.00;99825.09;1479779;88;22424;-80
2023/07/30 03:13:39;;;;;;;10.03;6.78;;;;;;;19.06;100.00;99831.19;1481009;88;21463;-80
2023/07/30 03:16:05;;;;;;;10.93;5.90;;;;;;;19.04;100.00;99830.57;1482168;88;21449;-79
2023/07/30 03:18:32;;;;;;;10.95;6.40;;;;;;;19.03;100.00;99824.92;1474023;88;21655;-80
2023/07/30 03:21:00;;;;;;;8.03;6.20;;;;;;;19.02;100.00;99828.62;1459000;88;21515;-79
2023/07/30 03:23:27;;;;;;;8.45;6.00;;;;;;;19.01;100.00;99821.62;1483331;88;21462;-79
2023/07/30 03:25:53;;;;;;;13.45;6.37;;;;;;;19.03;100.00;99822.23;1476652;88;22943;-79
2023/07/30 03:28:19;;;;;;;10.20;6.50;;;;;;;19.01;100.00;99836.38;1477502;88;23127;-80
2023/07/30 03:30:45;;;;;;;6.50;5.75;;;;;;;19.00;100.00;99833.40;1452042;88;22601;-80
2023/07/30 03:33:12;;;;;;;8.68;5.22;;;;;;;18.98;100.00;99836.80;1481077;88;21649;-79
2023/07/30 03:35:38;;;;;;;12.35;7.28;;;;;;;18.94;100.00;99833.22;1482179;88;21589;-79
2023/07/30 03:38:04;;;;;;;10.45;5.65;;;;;;;18.93;100.00;99840.13;1475896;88;21471;-79
2023/07/30 03:40:31;;;;;;;7.75;6.55;;;;;;;18.87;100.00;99840.50;1454178;88;21419;-79
2023/07/30 03:42:57;;;;;;;9.23;7.10;;;;;;;18.79;100.00;99846.61;1471262;88;21536;-79
2023/07/30 03:45:23;;;;;;;8.03;6.70;;;;;;;18.77;100.00;99849.52;1481814;88;22498;-79
2023/07/30 03:47:49;;;;;;;14.20;8.20;;;;;;;18.75;100.00;99855.61;1477394;88;21620;-79
2023/07/30 03:50:16;;;;;;;7.78;6.80;;;;;;;18.77;100.00;99851.38;1479335;88;21662;-79
2023/07/30 03:52:42;;;;;;;7.90;5.90;;;;;;;18.77;100.00;99856.22;1480609;88;22276;-79
2023/07/30 03:55:08;;;;;;;8.45;6.70;;;;;;;18.77;100.00;99849.52;1486407;88;21448;-79
2023/07/30 03:57:34;;;;;;;8.25;6.15;;;;;;;18.78;100.00;99857.86;1466045;88;21500;-81
2023/07/30 04:00:01;;;;;;;11.08;7.20;;;;;;;18.81;100.00;99857.42;1475858;88;21556;-80
2023/07/30 04:02:27;;;;;;;13.22;7.30;;;;;;;18.83;100.00;99854.54;1480138;88;21477;-80
2023/07/30 04:04:53;;;;;;;10.20;7.33;;;;;;;18.84;100.00;99848.95;1478759;88;21500;-80
2023/07/30 04:07:19;;;;;;;11.30;6.78;;;;;;;18.86;100.00;99846.88;1475107;88;21552;-80
2023/07/30 04:13:09;;;;;;;8.35;6.60;;;;;;;18.90;100.00;99852.12;1481743;88;22299;-81
2023/07/30 04:15:36;;;;;;;11.78;7.03;;;;;;;18.96;100.00;99856.30;1483215;88;22533;-80
2023/07/30 04:18:02;;;;;;;11.75;7.78;;;;;;;19.00;100.00;99856.19;1477842;88;21462;-80
2023/07/30 04:20:28;;;;;;;7.92;7.12;;;;;;;19.05;100.00;99856.37;1483786;88;21522;-80
2023/07/30 04:22:54;;;;;;;11.15;7.28;;;;;;;19.08;100.00;99854.07;1484329;88;21455;-79
2023/07/30 04:25:20;;;;;;;8.55;7.15;;;;;;;19.12;100.00;99855.27;1481121;88;21426;-80
2023/07/30 04:27:47;;;;;;;9.58;8.58;;;;;;;19.17;100.00;99861.33;1490319;88;22351;-80
2023/07/30 04:30:13;;;;;;;13.40;7.30;;;;;;;19.21;100.00;99863.87;1478740;88;21485;-77
2023/07/30 04:32:39;;;;;;;9.13;7.62;;;;;;;19.28;100.00;99861.16;1487605;88;21455;-78
2023/07/30 04:35:06;;;;;;;8.53;7.60;;;;;;;19.34;100.00;99855.73;1480607;88;21530;-79
2023/07/30 04:37:32;;;;;;;11.50;7.33;;;;;;;19.44;100.00;99840.99;1491558;88;21434;-79
2023/07/30 04:39:58;;;;;;;10.10;7.15;;;;;;;19.53;100.00;99843.69;1475307;88;21537;-78
2023/07/30 04:42:24;;;;;;;9.93;7.33;;;;;;;19.61;100.00;99844.23;1480243;88;21845;-79
2023/07/30 04:44:50;;;;;;;13.53;8.05;;;;;;;19.72;100.00;99837.88;1459444;88;21440;-79
2023/07/30 04:47:16;;;;;;;8.40;7.50;;;;;;;19.82;100.00;99840.36;1482093;88;22357;-79
2023/07/30 04:49:42;;;;;;;9.45;7.62;;;;;;;19.93;100.00;99841.99;1467896;88;21546;-79
2023/07/30 04:52:08;;;;;;;13.75;7.37;;;;;;;20.02;100.00;99846.02;1468082;88;22232;-79
2023/07/30 04:54:38;;;;;;;11.10;6.72;;;;;;;20.12;100.00;99846.86;1483108;88;21611;-80
2023/07/30 04:57:05;;;;;;;8.98;6.72;;;;;;;20.25;100.00;99847.53;1471598;88;21551;-79
2023/07/30 04:59:33;;;;;;;11.43;7.60;;;;;;;20.38;100.00;99846.53;1471037;88;21945;-79
2023/07/30 05:02:01;;;;;;;11.45;7.40;;;;;;;20.50;100.00;99848.75;1482875;88;21566;-81
2023/07/30 05:04:27;;;;;;;11.80;6.67;;;;;;;20.62;100.00;99851.52;1487922;88;21470;-80
2023/07/30 05:06:53;;;;;;;8.43;6.87;;;;;;;20.79;100.00;99853.05;1476372;88;22351;-81
2023/07/30 05:09:19;;;;;;;11.68;6.35;;;;;;;20.79;100.00;99853.05;1476715;88;21426;-80
2023/07/30 05:11:45;;;;;;;13.48;6.05;;;;;;;20.94;100.00;99865.58;1479435;88;21619;-81
2023/07/30 05:14:12;;;;;;;9.33;6.70;;;;;;;21.09;100.00;99871.87;1480980;88;21879;-79
2023/07/30 05:16:38;;;;;;;7.58;6.50;;;;;;;21.27;100.00;99874.19;1468720;88;21515;-80
2023/07/30 05:19:04;;;;;;;15.32;7.05;;;;;;;21.40;100.00;99873.45;1483498;88;22113;-80
2023/07/30 05:21:31;;;;;;;7.55;6.75;;;;;;;21.48;100.00;99875.00;1480212;88;21464;-80
2023/07/30 05:23:57;;;;;;;14.93;7.87;;;;;;;21.54;100.00;99874.06;1480840;88;21578;-84
2023/07/30 05:26:25;;;;;;;9.88;7.03;;;;;;;21.57;100.00;99878.98;1482944;88;21477;-81
2023/07/30 05:28:51;;;;;;;12.28;7.10;;;;;;;21.60;100.00;99881.20;1477280;88;21463;-80
2023/07/30 05:31:17;;;;;;;12.50;7.20;;;;;;;21.60;100.00;99881.20;1474941;88;22928;-81
2023/07/30 05:33:43;;;;;;;10.90;7.20;;;;;;;21.62;100.00;99889.88;1479633;88;21411;-80
2023/07/30 05:36:09;;;;;;;12.37;7.25;;;;;;;21.70;100.00;99895.45;1482635;88;21640;-81
2023/07/30 05:38:35;;;;;;;12.60;8.18;;;;;;;21.81;100.00;99900.03;1483424;88;22278;-81
2023/07/30 05:41:02;;;;;;;6.65;5.97;;;;;;;21.92;100.00;99901.06;1475327;88;21566;-82
2023/07/30 05:43:28;;;;;;;10.72;7.58;;;;;;;22.07;100.00;99904.65;1472682;88;22060;-81
2023/07/30 05:45:54;;;;;;;11.30;6.33;;;;;;;22.19;100.00;99904.66;1449250;88;21515;-81
2023/07/30 05:48:20;;;;;;;9.80;7.83;;;;;;;22.30;100.00;99905.98;1476991;88;21618;-81
2023/07/30 05:50:46;;;;;;;10.18;6.67;;;;;;;22.35;100.00;99901.22;1474940;88;22380;-80
2023/07/30 05:53:12;;;;;;;9.78;7.80;;;;;;;22.44;100.00;99910.59;1482053;88;22003;-81
2023/07/30 05:55:39;;;;;;;9.35;6.40;;;;;;;22.56;100.00;99915.11;1472624;88;21455;-80
2023/07/30 05:58:05;;;;;;;12.47;6.08;;;;;;;22.65;100.00;99900.22;1476193;88;21427;-82
2023/07/30 06:00:31;;;;;;;9.13;6.37;;;;;;;22.75;100.00;99903.09;1475751;88;21596;-82
2023/07/30 06:02:57;;;;;;;11.75;6.28;;;;;;;22.82;100.00;99898.39;1480723;88;21523;-82
2023/07/30 06:05:24;;;;;;;11.18;6.17;;;;;;;22.96;100.00;99903.81;1450332;88;21585;-81
2023/07/30 06:07:50;;;;;;;10.98;6.50;;;;;;;23.01;100.00;99909.01;1474791;88;21456;-81
2023/07/30 06:10:17;;;;;;;11.38;6.67;;;;;;;23.15;100.00;99911.69;1473973;88;21419;-81
2023/07/30 06:12:43;;;;;;;7.75;6.95;;;;;;;23.34;100.00;99905.55;1474317;88;21604;-80
2023/07/30 06:15:10;;;;;;;9.95;6.97;;;;;;;23.49;100.00;99902.28;1474324;88;21427;-82
2023/07/30 06:17:36;;;;;;;9.33;6.55;;;;;;;23.73;100.00;99893.50;1476605;88;21597;-82
2023/07/30 06:20:03;;;;;;;9.10;6.62;;;;;;;23.97;100.00;99903.59;1469001;88;22160;-81
2023/07/30 06:22:29;;;;;;;10.65;6.25;;;;;;;24.05;100.00;99895.03;1475818;88;22351;-81
2023/07/30 06:24:55;;;;;;;6.33;5.72;;;;;;;24.02;100.00;99904.45;1477835;88;21670;-80
2023/07/30 06:27:21;;;;;;;10.65;6.50;;;;;;;23.93;100.00;99900.55;1468781;88;21522;-82
2023/07/30 06:29:47;;;;;;;6.12;5.58;;;;;;;23.95;100.00;99903.02;1473876;88;21592;-80
2023/07/30 06:32:13;;;;;;;8.80;6.47;;;;;;;23.97;100.00;99898.19;1457847;88;22232;-81
2023/07/30 06:34:40;;;;;;;13.75;6.37;;;;;;;23.93;100.00;99902.44;1470540;88;21493;-81
2023/07/30 06:37:07;;;;;;;7.90;6.12;;;;;;;23.97;100.00;99901.70;1480810;88;22291;-81
2023/07/30 06:39:33;;;;;;;7.28;6.28;;;;;;;24.04;100.00;99900.17;1480410;88;21603;-81
2023/07/30 06:41:59;;;;;;;6.78;5.97;;;;;;;24.08;100.00;99895.89;1470869;88;22052;-82
2023/07/30 06:44:25;;;;;;;8.10;5.92;;;;;;;24.14;100.00;99894.92;1480757;88;21589;-83
2023/07/30 06:46:51;;;;;;;9.03;5.80;;;;;;;24.28;100.00;99893.98;1473591;88;21427;-82
2023/07/30 06:49:17;;;;;;;9.33;6.58;;;;;;;24.45;100.00;99893.97;1479387;88;21688;-83
2023/07/30 06:51:43;;;;;;;10.63;6.60;;;;;;;24.58;100.00;99895.48;1468455;88;21471;-81
2023/07/30 06:54:09;;;;;;;6.30;5.15;;;;;;;24.60;100.00;99890.62;1451911;88;22446;-81
2023/07/30 06:56:35;;;;;;;6.22;5.60;;;;;;;24.68;100.00;99886.12;1471386;88;21427;-82
2023/07/30 06:59:03;;;;;;;9.78;5.35;;;;;;;24.81;100.00;99888.44;1473952;88;21538;-81
2023/07/30 07:01:29;;;;;;;6.83;5.70;;;;;;;25.02;100.00;99885.39;1473685;88;22397;-80
2023/07/30 07:03:55;;;;;;;6.30;4.78;;;;;;;25.14;100.00;99888.78;1482174;88;21559;-81
2023/07/30 07:06:21;;;;;;;7.10;5.70;;;;;;;25.20;100.00;99878.81;1478357;88;21449;-82
2023/07/30 07:08:48;;;;;;;9.03;5.28;;;;;;;25.15;100.00;99886.91;1471754;88;21586;-82
2023/07/30 07:11:14;;;;;;;9.83;4.80;;;;;;;25.30;100.00;99880.81;1476480;88;21522;-80
2023/07/30 07:13:40;;;;;;;4.25;3.83;;;;;;;25.51;100.00;99883.14;1476102;88;21396;-82
2023/07/30 07:16:07;;;;;;;5.17;3.60;;;;;;;25.76;100.00;99878.45;1469808;88;21615;-81
2023/07/30 07:18:33;;;;;;;5.12;3.50;;;;;;;25.83;100.00;99881.76;1473473;88;22314;-80
2023/07/30 07:20:59;;;;;;;6.78;3.83;;;;;;;25.72;98.92;99871.89;1475977;88;21551;-81
2023/07/30 07:23:25;;;;;;;7.60;4.42;;;;;;;25.83;100.00;99879.05;1475355;88;21515;-80
2023/07/30 07:25:52;;;;;;;6.35;3.95;;;;;;;25.83;98.92;99872.27;1471512;88;21659;-80
2023/07/30 07:28:19;;;;;;;4.95;4.03;;;;;;;25.69;98.04;99873.77;1474822;88;22365;-81
2023/07/30 07:30:45;;;;;;;8.40;3.70;;;;;;;25.69;98.85;99880.55;1473932;88;21434;-81
2023/07/30 07:33:14;;;;;;;6.05;4.33;;;;;;;25.73;99.05;99879.78;1474956;88;21578;-80
2023/07/30 07:35:40;;;;;;;6.37;4.00;;;;;;;25.72;98.57;99880.02;1471468;88;21463;-80
2023/07/30 07:38:06;;;;;;;8.78;4.35;;;;;;;25.79;99.38;99885.50;1473547;88;21536;-81
2023/07/30 07:40:39;;;;;;;6.78;4.17;;;;;;;25.84;98.72;99880.70;1473256;88;21664;-81
2023/07/30 07:43:08;;;;;;;10.30;4.87;;;;;;;25.87;99.01;99874.75;1468223;88;21434;-79
2023/07/30 07:45:35;;;;;;;4.40;3.60;;;;;;;25.92;99.24;99872.59;1456833;88;21507;-80
2023/07/30 07:48:01;;;;;;;6.87;3.67;;;;;;;25.87;98.53;99876.11;1469774;88;21641;-79
2023/07/30 07:50:27;;;;;;;3.65;3.35;;;;;;;25.73;96.65;99870.30;1468471;88;21500;-80
2023/07/30 07:52:54;;;;;;;11.00;3.30;;;;;;;25.72;97.53;99867.83;1394790;88;21464;-87
2023/07/30 07:55:23;;;;;;;4.05;3.02;;;;;;;25.63;96.38;99858.02;1420854;88;21448;-86
2023/07/30 07:57:49;;;;;;;5.67;3.40;;;;;;;25.63;97.26;99856.12;1469013;88;21397;-90
2023/07/30 08:00:15;;;;;;;3.67;3.17;;;;;;;25.66;97.14;99852.08;1474472;88;22540;-91
2023/07/30 08:02:47;;;;;;;5.08;3.85;;;;;;;25.72;97.46;99843.44;1474769;88;21478;-88
2023/07/30 08:05:14;;;;;;;4.58;3.25;;;;;;;25.84;97.78;99842.20;1469608;88;21478;-89
2023/07/30 08:07:40;;;;;;;8.50;3.75;;;;;;;25.95;97.09;99849.86;1475362;88;21493;-87
2023/07/30 08:10:07;;;;;;;7.47;3.62;;;;;;;26.09;97.61;99852.34;1476086;88;21515;-88
2023/07/30 08:12:33;;;;;;;5.22;3.52;;;;;;;26.09;96.95;99852.34;1475919;88;21440;-88
2023/07/30 08:15:00;;;;;;;4.70;3.92;;;;;;;26.20;96.91;99860.54;1474147;88;21556;-89
2023/07/30 08:17:26;;;;;;;11.55;3.40;;;;;;;26.33;96.92;99864.13;1472845;88;21588;-88
2023/07/30 08:19:52;;;;;;;4.12;3.40;;;;;;;26.45;95.86;99870.14;1475026;88;21433;-88
2023/07/30 08:22:21;;;;;;;7.87;3.77;;;;;;;26.55;95.37;99873.45;1470973;88;22551;-86
2023/07/30 08:24:47;;;;;;;5.53;3.42;;;;;;;26.53;93.20;99876.98;1473462;88;21508;-87
2023/07/30 08:27:13;;;;;;;4.95;3.15;;;;;;;26.45;93.09;99868.78;1472507;88;21456;-88
2023/07/30 08:29:41;;;;;;;11.33;3.35;;;;;;;26.52;92.85;99870.72;1470406;88;21515;-92
2023/07/30 08:32:07;;;;;;;4.58;3.12;;;;;;;26.75;93.41;99867.26;1475739;88;21537;-88
2023/07/30 08:34:33;;;;;;;5.70;3.30;;;;;;;26.97;93.24;99873.27;1472364;88;21492;-86
2023/07/30 08:36:59;;;;;;;3.87;3.25;;;;;;;27.13;92.93;99871.41;1471528;88;21604;-89
2023/07/30 08:39:26;;;;;;;8.73;3.65;;;;;;;27.26;92.37;99879.58;1472090;88;21396;-87
2023/07/30 08:41:52;;;;;;;6.55;3.22;;;;;;;27.20;90.62;99880.67;1476626;88;21484;-88
2023/07/30 08:44:18;;;;;;;4.03;3.62;;;;;;;27.14;90.97;99887.97;1483450;88;21390;-88
2023/07/30 08:46:44;;;;;;;6.72;3.70;;;;;;;27.16;91.56;99890.42;1476634;88;22454;-85
2023/07/30 08:49:10;;;;;;;5.78;3.98;;;;;;;27.17;91.10;99890.17;1477813;88;21649;-88
2023/07/30 08:51:38;;;;;;;7.83;3.62;;;;;;;27.03;89.37;99890.39;1486321;88;22102;-92
2023/07/30 08:54:04;;;;;;;4.20;3.37;;;;;;;27.01;90.72;99887.94;1472690;88;21448;-88
2023/07/30 08:56:31;;;;;;;10.43;4.12;;;;;;;26.96;91.55;99887.95;1473764;88;21441;-89
2023/07/30 08:58:59;;;;;;;8.05;3.52;;;;;;;26.93;92.15;99884.41;1472190;88;22266;-89
2023/07/30 09:05:29;;;;;;;9.40;4.10;;;;;;;26.90;91.75;99886.83;1475598;88;21731;-89
2023/07/30 09:07:57;;;;;;;8.85;4.10;;;;;;;26.80;92.10;99901.21;1472067;88;21500;-89
2023/07/30 09:10:23;;;;;;;4.80;3.85;;;;;;;26.60;91.38;99896.53;1475734;88;21563;-89
2023/07/30 09:12:54;;;;;;;3.77;3.05;;;;;;;26.45;91.98;99895.91;1478105;88;22000;-90
2023/07/30 09:15:33;;;;;;;5.65;3.72;;;;;;;26.47;92.66;99895.63;1479773;88;21470;-90
2023/07/30 09:18:04;;;;;;;6.67;3.70;;;;;;;26.37;92.69;99889.64;1484923;88;21485;-90
2023/07/30 09:20:41;;;;;;;4.97;3.50;;;;;;;26.36;93.27;99888.56;1476788;88;22571;-85
2023/07/30 09:23:09;;;;;;;5.50;3.80;;;;;;;26.36;94.06;99892.08;1479388;88;21655;-91
2023/07/30 09:25:37;;;;;;;3.72;3.37;;;;;;;26.38;93.57;99890.45;1475709;88;21522;-88
2023/07/30 09:28:12;;;;;;;4.00;3.17;;;;;;;26.35;93.70;99891.79;1481275;88;22846;-84
2023/07/30 09:30:38;;;;;;;5.72;3.62;;;;;;;26.29;93.87;99892.30;1481229;88;21584;-89
2023/07/30 09:33:04;;;;;;;4.22;3.55;;;;;;;26.28;93.69;99885.80;1480001;88;21478;-89
2023/07/30 09:35:34;;;;;;;3.67;3.05;;;;;;;26.22;93.79;99890.94;1480348;88;21381;-90
2023/07/30 09:38:04;;;;;;;5.75;3.12;;;;;;;26.20;93.80;99880.34;1558752;88;21456;-90
2023/07/30 09:40:35;;;;;;;;;;;;;;;26.20;94.41;99867.32;1402307;88;21404;-87
2023/07/30 09:43:03;;;;;;;7.15;3.92;;;;;;;26.11;94.89;99865.66;1384278;89;20353;-87
2023/07/30 09:45:36;;;;;;;7.67;3.35;;;;;;;26.10;94.62;99863.48;1401725;88;21361;-88
2023/07/30 09:48:07;;;;;;;10.90;3.35;;;;;;;26.05;94.74;99868.06;1559282;88;22389;-87
2023/07/30 09:50:34;;;;;;;4.83;3.17;;;;;;;25.98;95.43;99868.31;1565695;88;21346;-88
2023/07/30 09:53:04;;;;;;;8.35;2.80;;;;;;;25.94;95.56;99867.19;1409822;88;21726;-86
2023/07/30 09:55:30;;;;;;;;;;;;;;;25.90;95.57;99868.80;1404896;88;22225;-87
2023/07/30 09:57:57;;;;;;;8.15;3.45;;;;;;;25.85;96.12;99875.55;1386389;89;20263;-87
2023/07/30 10:00:24;;;;;;;3.83;3.00;;;;;;;25.82;95.73;99871.97;1536792;89;21325;-89
2023/07/30 10:02:51;;;;;;;3.75;3.27;;;;;;;25.82;96.07;99870.62;1437662;89;21419;-89
2023/07/30 10:05:25;;;;;;;5.42;3.12;;;;;;;25.87;96.43;99874.75;1453728;89;21629;-87
2023/07/30 10:07:58;;;;;;;5.30;3.40;;;;;;;25.90;96.69;99870.70;1477109;88;21543;-88
2023/07/30 10:10:26;;;;;;;5.78;3.00;;;;;;;25.92;96.47;99878.83;1483511;88;21485;-88
2023/07/30 10:12:55;;;;;;;6.22;3.20;;;;;;;25.93;96.38;99872.34;1482605;88;21680;-90
2023/07/30 10:15:23;;;;;;;5.28;3.40;;;;;;;25.95;96.33;99873.42;1476407;88;21529;-90
2023/07/30 10:17:51;;;;;;;8.00;3.42;;;;;;;25.95;96.52;99883.75;1482234;88;22489;-84
2023/07/30 10:20:24;;;;;;;4.20;3.02;;;;;;;25.94;95.86;99884.81;1483946;88;21618;-87
2023/07/30 10:22:56;;;;;;;4.15;3.12;;;;;;;25.93;96.01;99887.25;1478785;88;21573;-89
2023/07/30 10:25:32;;;;;;;6.03;3.62;;;;;;;25.91;95.38;99887.23;1481263;88;21900;-88
2023/07/30 10:28:01;;;;;;;7.62;3.45;;;;;;;25.87;95.42;99885.59;1480051;88;22587;-89
2023/07/30 10:30:38;;;;;;;5.85;2.90;;;;;;;25.86;94.76;99882.05;1477785;88;21449;-85
2023/07/30 10:33:09;;;;;;;3.15;2.70;;;;;;;25.84;93.85;99875.28;1480343;88;21604;-88
2023/07/30 10:35:47;;;;;;;4.42;2.80;;;;;;;25.78;93.04;99877.11;1477861;88;22462;-87
2023/07/30 10:38:27;;;;;;;3.42;3.10;;;;;;;25.75;92.78;99868.66;1565522;88;21486;-89
2023/07/30 10:41:12;;;;;;;6.85;2.72;;;;;;;25.75;92.97;99876.79;1403343;88;21523;-84
2023/07/30 10:43:45;;;;;;;7.72;3.15;;;;;;;25.71;93.50;99872.98;1481244;88;22776;-89
2023/07/30 10:46:15;;;;;;;3.10;2.72;;;;;;;25.66;93.61;99884.08;1481701;88;21529;-87
2023/07/30 10:48:44;;;;;;;4.60;3.08;;;;;;;25.68;94.06;99897.89;1480050;88;21625;-89
2023/07/30 10:51:17;;;;;;;6.80;3.57;;;;;;;25.65;94.75;99897.33;1481573;88;21471;-86
2023/07/30 10:53:46;;;;;;;9.53;3.27;;;;;;;25.60;95.38;99905.41;1477487;88;21647;-92
2023/07/30 10:56:15;;;;;;;6.92;3.20;;;;;;;25.52;95.35;99904.56;1478515;88;21522;-87
2023/07/30 10:58:43;;;;;;;4.03;3.62;;;;;;;25.43;95.14;99904.73;1483031;88;21948;-87
2023/07/30 11:01:10;;;;;;;7.15;3.33;;;;;;;25.37;95.30;99907.13;1453352;88;21515;-87
2023/07/30 11:03:38;;;;;;;5.60;3.25;;;;;;;25.32;95.41;99913.33;1478145;88;22365;-89
2023/07/30 11:06:14;;;;;;;4.03;3.37;;;;;;;25.29;95.86;99917.07;1479735;88;21626;-86
2023/07/30 11:08:43;;;;;;;5.55;3.50;;;;;;;25.28;96.68;99918.16;1473776;88;21552;-89
2023/07/30 11:11:10;;;;;;;5.35;3.33;;;;;;;25.25;97.15;99925.44;1478456;88;21633;-84
2023/07/30 11:13:45;;;;;;;3.62;2.60;;;;;;;25.23;96.97;99928.94;1475791;88;21629;-87
2023/07/30 11:16:12;;;;;;;6.00;3.02;;;;;;;25.22;96.79;99936.25;1473977;88;21655;-86
2023/07/30 11:18:41;;;;;;;6.45;3.08;;;;;;;25.15;97.16;99925.63;1440259;88;22521;-86
2023/07/30 11:21:10;;;;;;;7.28;3.72;;;;;;;25.16;97.21;99923.20;1473012;88;21566;-88
2023/07/30 11:23:39;;;;;;;4.92;2.47;;;;;;;25.12;97.45;99917.18;1476935;88;21632;-85
2023/07/30 11:26:08;;;;;;;5.15;2.92;;;;;;;25.13;98.20;99916.91;1396054;88;21338;-87
2023/07/30 11:28:39;;;;;;;3.20;2.77;;;;;;;25.20;98.85;99916.20;1396720;88;21450;-86
2023/07/30 11:31:19;;;;;;;3.60;2.90;;;;;;;25.27;100.00;99915.98;1500128;88;21360;-90
2023/07/30 11:33:47;;;;;;;4.15;2.50;;;;;;;25.27;99.98;99915.18;1559436;88;21610;-94